Time;durP1;ratioP1;P1;durP2;ratioP2;P2;SDS_P1;SDS_P2;PMS_P1;PMS_P2;Temp;Humidity;BMP_temperature;BMP_pressure;BME280_temperature;BME280_humidity;BME280_pressure;Samples;Min_cycle;Max_cycle;Signal;HPM_P1;HPM_P2
2022/06/13 00:01:14;;;;;;;17.23;5.25;;;14.00;99.90;;;;;;4972885;28;260115;-72
2022/06/13 00:03:41;;;;;;;17.13;4.82;;;13.90;99.90;;;;;;5043436;28;20029;-74
2022/06/13 00:06:08;;;;;;;16.52;5.18;;;13.90;99.90;;;;;;4938132;28;218930;-76
2022/06/13 00:08:35;;;;;;;16.50;5.07;;;13.80;99.90;;;;;;5030537;28;20236;-74
2022/06/13 00:11:06;;;;;;;20.10;5.53;;;13.70;99.90;;;;;;4958461;28;206971;-73
2022/06/13 00:13:32;;;;;;;15.20;4.95;;;13.70;99.90;;;;;;5036190;28;20055;-73
2022/06/13 00:15:58;;;;;;;18.08;5.70;;;13.60;99.90;;;;;;4970847;28;272963;-73
2022/06/13 00:18:24;;;;;;;20.73;5.43;;;13.60;99.90;;;;;;5038323;28;20048;-72
2022/06/13 00:20:50;;;;;;;18.38;5.18;;;13.60;99.90;;;;;;4974554;28;273032;-73
2022/06/13 00:23:17;;;;;;;18.15;5.35;;;13.60;99.90;;;;;;5025605;28;20506;-74
2022/06/13 00:25:43;;;;;;;19.20;5.72;;;13.50;99.90;;;;;;4976361;28;257913;-74
2022/06/13 00:28:09;;;;;;;15.32;5.30;;;13.60;99.90;;;;;;5024325;28;20045;-74
2022/06/13 00:30:37;;;;;;;16.33;4.90;;;13.60;99.90;;;;;;4961668;28;275567;-74
2022/06/13 00:33:03;;;;;;;17.27;4.93;;;13.60;99.90;;;;;;5046323;28;20052;-73
2022/06/13 00:35:29;;;;;;;19.05;5.13;;;13.60;99.90;;;;;;4973953;28;266328;-74
2022/06/13 00:37:55;;;;;;;19.15;5.22;;;13.60;99.90;;;;;;5034167;28;20041;-74
2022/06/13 00:40:22;;;;;;;17.85;5.38;;;13.60;99.90;;;;;;4974390;28;268050;-73
2022/06/13 00:42:49;;;;;;;17.02;5.03;;;13.60;99.90;;;;;;5035369;28;20065;-73
2022/06/13 00:45:24;;;;;;;20.25;5.38;;;13.60;99.90;;;;;;4998097;28;255573;-72
2022/06/13 00:47:53;;;;;;;19.70;5.47;;;13.60;99.90;;;;;;5018301;28;210537;-73
2022/06/13 00:50:23;;;;;;;17.10;5.32;;;13.50;99.90;;;;;;4974076;28;255053;-73
2022/06/13 00:52:55;;;;;;;18.60;5.07;;;13.50;99.90;;;;;;5034405;28;20332;-73
2022/06/13 00:55:29;;;;;;;17.20;4.95;;;13.50;99.90;;;;;;4983467;28;257242;-73
2022/06/13 00:57:56;;;;;;;13.77;5.10;;;13.50;99.90;;;;;;5005886;28;20048;-73
2022/06/13 01:00:22;;;;;;;17.80;4.97;;;13.40;99.90;;;;;;4972675;28;277947;-72
2022/06/13 01:02:51;;;;;;;19.38;4.95;;;13.40;99.90;;;;;;5030335;28;20049;-73
2022/06/13 01:05:29;;;;;;;16.65;4.88;;;13.50;99.90;;;;;;4966463;28;260019;-73
2022/06/13 01:07:59;;;;;;;21.30;4.95;;;13.40;99.90;;;;;;5019558;28;20060;-74
2022/06/13 01:13:11;;;;;;;16.70;5.53;;;13.40;99.90;;;;;;5032798;28;20056;-73
2022/06/13 01:15:43;;;;;;;17.30;4.93;;;13.40;99.90;;;;;;4960309;28;206581;-73
2022/06/13 01:18:11;;;;;;;17.17;5.25;;;13.40;99.90;;;;;;5021467;28;20067;-74
2022/06/13 01:20:58;;;;;;;15.57;4.72;;;13.40;99.90;;;;;;4973921;28;273371;-72
2022/06/13 01:23:43;;;;;;;18.33;5.63;;;13.40;99.90;;;;;;5039994;28;20497;-73
2022/06/13 01:26:52;;;;;;;16.90;5.07;;;13.30;99.90;;;;;;4978342;28;273608;-74
2022/06/13 01:29:42;;;;;;;17.30;5.00;;;13.30;99.90;;;;;;5022702;28;255183;-74
2022/06/13 01:32:29;;;;;;;15.43;4.30;;;13.30;99.90;;;;;;4963666;28;209010;-72
2022/06/13 01:35:26;;;;;;;15.27;4.97;;;13.30;99.90;;;;;;5023393;28;263225;-72
2022/06/13 01:38:08;;;;;;;16.35;4.75;;;13.30;99.90;;;;;;4978685;28;208695;-73
2022/06/13 01:40:48;;;;;;;17.52;5.13;;;13.30;99.90;;;;;;4982828;28;248322;-72
2022/06/13 01:43:50;;;;;;;16.42;5.10;;;13.40;99.90;;;;;;5039367;28;20387;-74
2022/06/13 01:46:54;;;;;;;18.30;5.22;;;13.40;99.90;;;;;;4893637;28;207642;-75
2022/06/13 01:50:02;;;;;;;18.48;5.38;;;13.30;99.90;;;;;;4864390;29;122390;-72
2022/06/13 01:52:52;;;;;;;16.90;5.28;;;13.30;99.90;;;;;;4831537;29;215179;-77
2022/06/13 01:55:37;;;;;;;16.52;5.40;;;13.40;99.90;;;;;;4827326;29;206334;-72
2022/06/13 01:58:18;;;;;;;14.52;5.30;;;13.30;99.90;;;;;;4880922;29;20057;-74
2022/06/13 02:00:50;;;;;;;;;;;13.30;99.90;;;;;;4841244;29;226483;-72
2022/06/13 02:03:52;;;;;;;14.60;5.35;;;13.20;99.90;;;;;;4875894;29;19930;-73
2022/06/13 02:06:27;;;;;;;17.92;6.18;;;13.20;99.90;;;;;;4817948;29;205749;-74
2022/06/13 02:09:04;;;;;;;16.83;5.68;;;13.20;99.90;;;;;;4882630;29;20070;-73
2022/06/13 02:11:52;;;;;;;16.40;5.80;;;13.20;99.90;;;;;;4819929;29;206432;-74
2022/06/13 02:14:36;;;;;;;22.73;6.47;;;13.20;99.90;;;;;;4871288;29;165990;-73
2022/06/13 02:17:05;;;;;;;20.55;6.20;;;13.20;99.90;;;;;;4819534;29;220135;-72
2022/06/13 02:19:41;;;;;;;20.55;6.50;;;13.20;99.90;;;;;;4860295;29;122453;-72
2022/06/13 02:22:33;;;;;;;17.85;5.82;;;13.20;99.90;;;;;;4862925;28;206328;-72
2022/06/13 02:25:04;;;;;;;19.42;6.57;;;13.20;99.90;;;;;;5017771;28;109147;-73
2022/06/13 02:27:35;;;;;;;21.30;6.30;;;13.20;99.90;;;;;;4974378;28;183639;-73
2022/06/13 02:30:10;;;;;;;19.50;7.00;;;13.20;99.90;;;;;;5009319;28;172332;-72
2022/06/13 02:32:44;;;;;;;18.88;6.07;;;13.10;99.90;;;;;;4960770;28;206646;-73
2022/06/13 02:35:15;;;;;;;17.73;6.18;;;13.10;99.90;;;;;;5013500;28;264162;-72
2022/06/13 02:37:50;;;;;;;21.95;6.72;;;13.10;99.90;;;;;;4984961;28;208088;-72
2022/06/13 02:40:26;;;;;;;19.98;7.07;;;13.10;99.90;;;;;;4985436;28;264902;-74
2022/06/13 02:42:58;;;;;;;21.27;6.88;;;13.10;99.90;;;;;;5017139;28;20072;-75
2022/06/13 02:45:41;;;;;;;18.27;6.57;;;13.10;99.90;;;;;;4967713;28;217852;-73
2022/06/13 02:48:44;;;;;;;18.58;6.10;;;13.10;99.90;;;;;;5020929;28;20058;-73
2022/06/13 02:51:47;;;;;;;21.95;6.45;;;13.10;99.90;;;;;;4965407;28;272615;-73
2022/06/13 02:54:17;;;;;;;20.07;6.43;;;13.10;99.90;;;;;;5001560;28;272992;-72
2022/06/13 02:57:23;;;;;;;20.98;6.82;;;13.10;99.90;;;;;;4973811;28;205802;-73
2022/06/13 03:00:02;;;;;;;17.42;6.65;;;13.20;99.90;;;;;;5014443;28;30075;-73
2022/06/13 03:03:01;;;;;;;22.42;6.78;;;13.20;99.90;;;;;;4960212;28;209245;-73
2022/06/13 03:05:38;;;;;;;21.38;6.78;;;13.20;99.90;;;;;;4948107;28;211931;-73
2022/06/13 03:08:17;;;;;;;20.15;7.22;;;13.20;99.90;;;;;;5035277;28;20063;-73
2022/06/13 03:10:48;;;;;;;24.42;7.88;;;13.20;99.90;;;;;;4961202;28;204012;-73
2022/06/13 03:13:34;;;;;;;22.08;7.20;;;13.20;99.90;;;;;;5008109;28;20539;-74
2022/06/13 03:16:11;;;;;;;21.15;7.13;;;13.20;99.90;;;;;;4972406;28;174514;-73
2022/06/13 03:18:46;;;;;;;21.08;7.47;;;13.20;99.90;;;;;;5027098;28;20061;-74
2022/06/13 03:21:17;;;;;;;24.27;7.38;;;13.30;99.90;;;;;;4964461;28;207315;-73
2022/06/13 03:23:57;;;;;;;23.05;7.65;;;13.20;99.90;;;;;;5019098;28;20060;-74
2022/06/13 03:26:31;;;;;;;23.45;6.80;;;13.30;99.90;;;;;;4963551;28;268217;-74
2022/06/13 03:29:15;;;;;;;21.40;7.45;;;13.30;99.90;;;;;;5041678;28;20048;-74
2022/06/13 03:31:48;;;;;;;22.30;7.68;;;13.30;99.90;;;;;;4964720;28;206605;-75
2022/06/13 03:34:19;;;;;;;17.50;7.47;;;13.30;99.90;;;;;;5013574;28;281089;-73
2022/06/13 03:36:55;;;;;;;20.15;7.53;;;13.30;99.90;;;;;;4992292;28;208857;-73
2022/06/13 03:39:57;;;;;;;18.87;7.43;;;13.30;99.90;;;;;;5022076;28;281297;-74
2022/06/13 03:42:38;;;;;;;21.80;7.82;;;13.30;99.90;;;;;;4940881;28;204424;-73
2022/06/13 03:45:25;;;;;;;19.27;8.07;;;13.40;99.90;;;;;;5020511;28;161224;-73
2022/06/13 03:47:54;;;;;;;18.60;7.10;;;13.30;99.90;;;;;;4964726;28;205898;-73
2022/06/13 03:50:37;;;;;;;21.10;7.57;;;13.30;99.90;;;;;;4982670;28;217640;-73
2022/06/13 03:53:44;;;;;;;20.13;7.57;;;13.40;99.90;;;;;;5020532;28;20045;-73
2022/06/13 03:56:15;;;;;;;23.23;7.25;;;13.40;99.90;;;;;;4961264;28;211368;-73
2022/06/13 03:58:53;;;;;;;26.30;7.22;;;13.40;99.90;;;;;;5019881;28;20049;-75
2022/06/13 04:01:21;;;;;;;22.42;7.15;;;13.50;99.90;;;;;;4960314;28;206268;-75
2022/06/13 04:03:47;;;;;;;22.95;7.00;;;13.50;99.90;;;;;;5025833;28;20072;-72
2022/06/13 04:06:34;;;;;;;19.92;6.55;;;13.50;99.90;;;;;;4955966;28;267994;-72
2022/06/13 04:09:03;;;;;;;21.60;6.50;;;13.60;99.90;;;;;;5026627;28;20426;-74
2022/06/13 04:11:57;;;;;;;17.55;6.65;;;13.50;99.90;;;;;;4946899;28;207811;-72
2022/06/13 04:14:38;;;;;;;17.77;6.30;;;13.50;99.90;;;;;;5006828;28;257391;-73
2022/06/13 04:17:11;;;;;;;;;;;13.60;99.90;;;;;;4948676;28;218414;-73
2022/06/13 04:20:18;;;;;;;24.67;6.95;;;13.60;99.90;;;;;;5025660;28;238835;-73
2022/06/13 04:22:57;;;;;;;21.48;6.43;;;13.60;99.90;;;;;;4970522;28;206348;-73
2022/06/13 04:25:36;;;;;;;17.23;6.00;;;13.70;99.90;;;;;;4964532;28;205927;-73
2022/06/13 04:28:18;;;;;;;19.33;5.35;;;13.70;99.90;;;;;;5037440;28;20052;-73
2022/06/13 04:30:46;;;;;;;16.35;5.40;;;13.80;99.90;;;;;;4984589;28;269850;-74
2022/06/13 04:33:20;;;;;;;19.00;5.15;;;13.80;99.90;;;;;;5023597;28;20072;-74
2022/06/13 04:35:47;;;;;;;17.15;4.78;;;13.90;99.90;;;;;;4959423;28;217953;-72
2022/06/13 04:38:16;;;;;;;19.17;4.57;;;14.00;99.90;;;;;;5039339;28;20059;-72
2022/06/13 04:40:50;;;;;;;12.55;4.28;;;14.10;99.90;;;;;;4958890;28;210497;-73
2022/06/13 04:43:20;;;;;;;17.70;4.30;;;14.10;99.90;;;;;;5017627;28;20050;-74
2022/06/13 04:45:56;;;;;;;13.95;3.42;;;14.20;99.90;;;;;;4965800;28;203897;-72
2022/06/13 04:48:24;;;;;;;12.25;2.97;;;14.20;99.90;;;;;;5042248;28;20049;-73
2022/06/13 04:50:55;;;;;;;13.10;3.17;;;14.30;99.90;;;;;;4978134;28;254787;-73
2022/06/13 04:53:41;;;;;;;;;;;14.40;99.90;;;;;;5027513;28;20057;-73
2022/06/13 04:56:07;;;;;;;14.88;3.53;;;14.40;99.90;;;;;;4962747;28;270932;-73
2022/06/13 04:58:37;;;;;;;12.35;3.30;;;14.50;99.90;;;;;;5042175;28;20064;-73
2022/06/13 05:01:15;;;;;;;11.27;2.80;;;14.60;99.90;;;;;;4957578;28;264376;-72
2022/06/13 05:03:43;;;;;;;14.95;3.08;;;14.60;99.90;;;;;;5040771;28;20155;-74
2022/06/13 05:06:39;;;;;;;8.63;2.50;;;14.70;99.90;;;;;;4951754;28;254795;-74
2022/06/13 05:09:33;;;;;;;12.88;2.75;;;14.70;99.90;;;;;;5022412;28;260534;-74
2022/06/13 05:12:09;;;;;;;14.23;2.67;;;14.80;99.90;;;;;;4977165;28;205899;-75
2022/06/13 05:15:14;;;;;;;16.80;3.00;;;14.80;99.90;;;;;;5030403;28;286062;-74
2022/06/13 05:17:52;;;;;;;12.85;2.88;;;14.80;99.90;;;;;;4968706;28;215111;-73
2022/06/13 05:20:21;;;;;;;19.52;3.28;;;14.70;99.90;;;;;;4963666;28;230366;-73
2022/06/13 05:23:29;;;;;;;13.48;3.20;;;14.60;99.90;;;;;;5043140;28;20052;-75
2022/06/13 05:25:58;;;;;;;12.57;2.78;;;14.60;99.90;;;;;;4959842;28;207271;-75
2022/06/13 05:28:29;;;;;;;14.35;3.00;;;14.30;99.90;;;;;;5035324;28;20063;-75
2022/06/13 05:31:00;;;;;;;11.85;2.85;;;14.20;99.90;;;;;;4955970;28;206729;-74
2022/06/13 05:33:36;;;;;;;14.45;2.90;;;14.10;99.90;;;;;;5024483;28;20422;-76
2022/06/13 05:36:04;;;;;;;15.27;3.22;;;14.00;99.90;;;;;;4980433;28;263644;-76
2022/06/13 05:38:46;;;;;;;11.32;2.53;;;14.00;99.90;;;;;;5038912;28;20059;-74
2022/06/13 05:41:12;;;;;;;;;;;14.00;99.90;;;;;;4963553;28;206373;-73
2022/06/13 05:43:38;;;;;;;11.35;2.22;;;14.00;99.90;;;;;;5036187;28;19921;-72
2022/06/13 05:46:06;;;;;;;15.95;2.15;;;14.10;99.90;;;;;;4975028;28;266984;-73
2022/06/13 05:48:32;;;;;;;8.52;1.80;;;14.10;99.90;;;;;;5040696;28;20159;-73
2022/06/13 05:50:58;;;;;;;9.68;1.95;;;14.20;99.90;;;;;;4967481;28;268184;-72
2022/06/13 05:53:26;;;;;;;9.30;1.70;;;14.30;99.90;;;;;;5019167;28;20537;-73
2022/06/13 05:55:57;;;;;;;9.65;1.60;;;14.40;99.90;;;;;;4964844;28;260677;-72
2022/06/13 05:58:24;;;;;;;8.83;1.80;;;14.50;99.90;;;;;;5024711;28;20413;-71
2022/06/13 06:00:53;;;;;;;7.88;1.77;;;14.60;99.90;;;;;;4966546;28;242156;-72
2022/06/13 06:03:20;;;;;;;10.07;1.77;;;14.70;99.90;;;;;;5024785;28;20045;-72
2022/06/13 06:05:48;;;;;;;10.02;2.00;;;14.80;99.90;;;;;;4963387;28;269764;-72
2022/06/13 06:08:20;;;;;;;9.70;1.90;;;15.00;99.90;;;;;;5034321;28;20048;-73
2022/06/13 06:10:48;;;;;;;8.90;1.80;;;15.30;99.90;;;;;;4968245;28;207132;-73
2022/06/13 06:13:15;;;;;;;7.32;1.50;;;15.10;99.90;;;;;;5034897;28;20049;-73
2022/06/13 06:15:43;;;;;;;13.40;1.98;;;15.00;99.90;;;;;;4978102;28;261456;-72
2022/06/13 06:18:12;;;;;;;9.75;1.50;;;15.30;99.90;;;;;;5027120;28;20049;-72
2022/06/13 06:20:38;;;;;;;12.48;1.85;;;15.40;99.90;;;;;;4962549;28;245969;-71
2022/06/13 06:23:05;;;;;;;11.20;1.70;;;15.50;99.90;;;;;;5041586;28;20486;-71
2022/06/13 06:25:32;;;;;;;10.82;1.85;;;15.50;99.90;;;;;;4983074;28;266435;-72
2022/06/13 06:27:59;;;;;;;13.35;1.45;;;15.50;99.90;;;;;;5022372;28;20053;-71
2022/06/13 06:30:27;;;;;;;8.50;1.40;;;15.30;99.90;;;;;;4973401;28;263717;-73
2022/06/13 06:32:57;;;;;;;8.90;1.80;;;15.20;99.90;;;;;;5018553;28;20049;-72
2022/06/13 06:35:25;;;;;;;9.50;1.87;;;15.20;99.90;;;;;;4977035;28;137684;-71
2022/06/13 06:37:53;;;;;;;8.60;1.75;;;15.10;99.90;;;;;;5035431;28;20160;-72
2022/06/13 06:40:23;;;;;;;8.57;1.50;;;15.00;99.90;;;;;;4963439;28;206760;-74
2022/06/13 06:42:49;;;;;;;13.32;2.30;;;14.90;99.90;;;;;;5018574;28;20525;-73
2022/06/13 06:45:17;;;;;;;9.57;1.90;;;14.80;99.90;;;;;;4970368;28;224423;-74
2022/06/13 06:47:44;;;;;;;12.95;2.00;;;14.60;99.90;;;;;;5019780;28;20057;-75
2022/06/13 06:50:13;;;;;;;9.32;1.75;;;14.50;99.90;;;;;;5013091;28;51038;-74
2022/06/13 06:52:40;;;;;;;7.50;1.48;;;14.30;99.90;;;;;;4938271;28;179066;-75
2022/06/13 07:00:40;;;;;;;6.95;1.20;;;13.90;99.90;;;;;;4985485;28;212333;-76
2022/06/13 07:03:06;;;;;;;7.88;1.10;;;13.90;99.90;;;;;;5008504;28;20057;-77
2022/06/13 07:05:32;;;;;;;6.88;1.30;;;14.10;99.90;;;;;;4953737;28;245561;-76
2022/06/13 07:07:58;;;;;;;8.93;1.63;;;14.40;99.90;;;;;;5026498;28;20068;-76
2022/06/13 07:10:24;;;;;;;6.55;1.25;;;14.80;99.90;;;;;;4977367;28;256987;-74
2022/06/13 07:12:50;;;;;;;5.85;1.02;;;15.10;99.90;;;;;;5006077;28;20507;-74
2022/06/13 07:15:18;;;;;;;6.82;1.23;;;15.50;99.90;;;;;;4961155;28;249850;-73
2022/06/13 07:17:44;;;;;;;6.30;1.15;;;15.50;99.90;;;;;;5016702;28;20057;-73
2022/06/13 07:20:13;;;;;;;8.27;1.23;;;15.40;99.90;;;;;;5021065;28;272706;-74
2022/06/13 07:22:48;;;;;;;7.32;1.33;;;15.70;99.90;;;;;;4942611;28;208527;-74
2022/06/13 07:25:20;;;;;;;7.93;1.42;;;16.40;99.90;;;;;;4988003;28;202989;-73
2022/06/13 07:27:46;;;;;;;7.68;1.20;;;17.20;99.90;;;;;;5001163;28;202676;-74
2022/06/13 07:30:15;;;;;;;8.18;1.38;;;17.50;99.90;;;;;;5005027;28;273737;-74
2022/06/13 07:32:43;;;;;;;10.23;1.75;;;17.50;99.90;;;;;;4996895;28;206725;-72
2022/06/13 07:35:11;;;;;;;10.50;1.40;;;17.40;99.90;;;;;;5014706;28;58699;-73
2022/06/13 07:40:24;;;;;;;10.93;1.77;;;17.40;99.90;;;;;;4982923;28;272878;-73
2022/06/13 07:42:53;;;;;;;8.73;1.67;;;17.60;99.90;;;;;;5040259;28;20045;-73
2022/06/13 07:45:25;;;;;;;8.87;1.50;;;17.80;99.90;;;;;;4966565;28;207368;-73
2022/06/13 07:47:53;;;;;;;10.85;1.60;;;18.00;99.90;;;;;;5042093;28;20695;-73
2022/06/13 07:50:22;;;;;;;7.50;1.40;;;18.10;99.90;;;;;;4974058;28;216758;-73
2022/06/13 07:52:50;;;;;;;10.70;1.58;;;18.00;99.90;;;;;;5042876;28;20053;-73
2022/06/13 07:55:17;;;;;;;9.20;1.43;;;18.00;99.90;;;;;;4988333;28;250175;-74
2022/06/13 07:57:45;;;;;;;7.65;1.55;;;17.80;99.90;;;;;;5045327;28;20064;-74
2022/06/13 08:00:22;;;;;;;9.40;1.77;;;17.40;99.90;;;;;;5013521;28;274683;-72
2022/06/13 08:02:49;;;;;;;7.50;1.40;;;17.10;99.90;;;;;;5016121;28;115723;-73
2022/06/13 08:05:16;;;;;;;8.45;1.50;;;16.70;99.90;;;;;;4978577;28;257317;-69
2022/06/13 08:07:42;;;;;;;12.02;1.77;;;16.70;99.90;;;;;;5019912;28;20044;-72
2022/06/13 08:10:09;;;;;;;10.05;1.40;;;16.90;99.90;;;;;;5026263;28;268699;-73
2022/06/13 08:12:35;;;;;;;9.95;1.67;;;17.30;99.90;;;;;;5000244;28;162038;-72
2022/06/13 08:15:01;;;;;;;8.43;1.58;;;17.10;99.90;;;;;;5025861;28;259714;-72
2022/06/13 08:17:27;;;;;;;11.60;1.50;;;17.60;99.90;;;;;;5001372;28;205053;-72
2022/06/13 08:19:53;;;;;;;12.00;1.70;;;17.80;99.90;;;;;;5011871;28;178376;-73
2022/06/13 08:22:20;;;;;;;10.45;1.50;;;18.00;99.90;;;;;;4978328;28;210297;-73
2022/06/13 08:24:46;;;;;;;7.93;1.67;;;17.70;99.90;;;;;;5009954;28;228360;-73
2022/06/13 08:27:12;;;;;;;8.02;1.20;;;17.50;99.50;;;;;;4996060;28;221879;-72
2022/06/13 08:29:38;;;;;;;9.45;1.27;;;17.40;99.90;;;;;;5024489;28;254601;-72
2022/06/13 08:32:05;;;;;;;11.25;1.40;;;17.30;99.80;;;;;;4996259;28;206304;-72
2022/06/13 08:34:31;;;;;;;9.60;1.25;;;16.90;99.90;;;;;;5024299;28;272895;-72
2022/06/13 08:36:58;;;;;;;8.52;1.40;;;16.70;99.90;;;;;;4999500;28;218284;-72
2022/06/13 08:39:24;;;;;;;10.25;1.48;;;16.60;99.90;;;;;;5025025;28;272514;-72
2022/06/13 08:42:17;;;;;;;11.07;1.58;;;16.50;99.90;;;;;;4995302;28;206782;-71
2022/06/13 08:44:43;;;;;;;13.25;1.52;;;16.30;99.90;;;;;;5024734;28;261661;-72
2022/06/13 08:47:17;;;;;;;8.25;1.33;;;16.30;99.90;;;;;;4972205;28;218423;-71
2022/06/13 08:49:47;;;;;;;10.35;1.48;;;16.80;99.90;;;;;;5009820;28;124209;-72
2022/06/13 08:52:41;;;;;;;7.82;1.30;;;17.20;99.90;;;;;;4987918;28;206771;-71
2022/06/13 08:55:17;;;;;;;7.95;1.23;;;17.00;99.90;;;;;;5024607;28;252727;-71
2022/06/13 08:57:50;;;;;;;9.90;1.70;;;17.10;99.90;;;;;;4977783;28;207776;-70
2022/06/13 09:00:20;;;;;;;10.55;1.63;;;17.60;99.30;;;;;;4984021;28;250130;-72
2022/06/13 09:03:04;;;;;;;8.18;1.40;;;18.10;99.90;;;;;;5039507;28;20060;-71
2022/06/13 09:05:41;;;;;;;11.93;1.63;;;18.30;97.10;;;;;;4978408;28;176124;-72
2022/06/13 09:08:31;;;;;;;9.63;1.48;;;17.90;98.80;;;;;;5021620;28;20406;-72
2022/06/13 09:11:14;;;;;;;10.35;1.40;;;17.60;98.70;;;;;;4963310;28;236587;-71
2022/06/13 09:13:52;;;;;;;7.00;1.20;;;17.40;99.20;;;;;;5044373;28;20053;-71
2022/06/13 09:16:32;;;;;;;9.05;1.35;;;17.40;99.10;;;;;;4970133;28;273947;-73
2022/06/13 09:19:08;;;;;;;9.57;1.50;;;17.30;98.30;;;;;;5041148;28;20045;-73
2022/06/13 09:21:42;;;;;;;10.70;1.42;;;17.50;98.00;;;;;;4970325;28;215766;-72
2022/06/13 09:24:16;;;;;;;10.63;1.45;;;17.60;98.80;;;;;;5024935;28;272310;-72
2022/06/13 09:26:48;;;;;;;10.77;1.77;;;17.50;98.50;;;;;;5001170;28;189439;-72
2022/06/13 09:29:29;;;;;;;8.82;1.52;;;17.50;98.40;;;;;;5023719;28;255254;-72
2022/06/13 09:32:05;;;;;;;10.70;1.60;;;17.70;97.50;;;;;;4966367;28;180029;-73
2022/06/13 09:34:44;;;;;;;9.30;1.30;;;17.90;97.00;;;;;;5020866;28;272103;-72
2022/06/13 09:37:14;;;;;;;9.48;1.65;;;17.30;94.70;;;;;;4963770;28;206125;-72
2022/06/13 09:39:41;;;;;;;9.57;1.50;;;17.30;97.40;;;;;;5024522;28;253129;-72
2022/06/13 09:42:26;;;;;;;8.85;1.25;;;17.30;98.40;;;;;;4991773;28;213899;-72
2022/06/13 09:45:39;;;;;;;10.13;1.60;;;17.10;98.30;;;;;;5024272;28;248989;-73
2022/06/13 09:48:28;;;;;;;11.27;1.80;;;17.10;99.20;;;;;;4918846;28;205881;-72
2022/06/13 09:51:35;;;;;;;12.23;1.90;;;18.00;99.30;;;;;;4908640;28;236799;-72
2022/06/13 09:54:19;;;;;;;10.60;1.50;;;18.50;98.20;;;;;;4961733;28;20050;-73
2022/06/13 09:57:03;;;;;;;9.20;1.45;;;18.70;98.60;;;;;;4914304;28;182950;-70
2022/06/13 09:59:41;;;;;;;9.98;1.77;;;18.30;96.90;;;;;;4944192;28;235203;-71
2022/06/13 10:02:38;;;;;;;8.82;1.40;;;17.80;99.10;;;;;;4916207;28;213427;-70
2022/06/13 10:05:34;;;;;;;9.73;1.73;;;16.70;99.90;;;;;;4933456;28;125546;-70
2022/06/13 10:08:35;;;;;;;10.10;1.63;;;16.40;99.90;;;;;;4880396;28;171960;-69
2022/06/13 10:11:10;;;;;;;;;;;16.40;99.90;;;;;;4865517;28;213911;-69
2022/06/13 10:14:06;;;;;;;11.85;1.60;;;16.40;99.90;;;;;;4945638;28;19937;-69
2022/06/13 10:16:35;;;;;;;10.00;1.50;;;16.50;98.50;;;;;;4882891;28;125770;-70
2022/06/13 10:19:10;;;;;;;8.23;1.20;;;16.80;99.10;;;;;;4962761;28;20087;-70
2022/06/13 10:21:52;;;;;;;12.82;1.70;;;17.60;97.20;;;;;;4899084;28;87353;-70
2022/06/13 10:24:36;;;;;;;11.32;1.65;;;18.20;96.40;;;;;;4979949;28;254919;-70
2022/06/13 10:27:27;;;;;;;10.25;1.33;;;18.30;95.80;;;;;;4977938;28;206631;-70
2022/06/13 10:30:03;;;;;;;9.68;1.60;;;17.20;98.00;;;;;;5028593;28;272921;-71
2022/06/13 10:32:41;;;;;;;11.48;1.30;;;16.00;99.90;;;;;;4992236;28;210249;-72
2022/06/13 10:35:20;;;;;;;9.73;1.60;;;15.20;99.90;;;;;;5028453;28;65281;-73
2022/06/13 10:37:55;;;;;;;10.13;1.40;;;14.80;99.90;;;;;;4986033;28;209929;-72
2022/06/13 10:40:22;;;;;;;7.37;1.30;;;14.80;99.90;;;;;;4984256;28;255595;-72
2022/06/13 10:42:49;;;;;;;8.15;1.45;;;14.90;99.90;;;;;;5033643;28;20067;-71
2022/06/13 10:45:16;;;;;;;11.15;1.65;;;15.10;99.90;;;;;;4958336;28;211707;-72
2022/06/13 10:47:57;;;;;;;11.02;1.77;;;15.40;99.90;;;;;;5027645;28;20151;-71
2022/06/13 10:50:59;;;;;;;9.77;1.50;;;15.90;99.90;;;;;;4976483;28;252013;-71
2022/06/13 10:53:54;;;;;;;10.45;1.60;;;16.30;99.90;;;;;;5001070;28;20053;-70
2022/06/13 10:56:29;;;;;;;11.73;1.67;;;16.70;99.90;;;;;;4949590;28;206531;-70
2022/06/13 10:58:58;;;;;;;9.48;1.60;;;17.30;99.90;;;;;;4974637;28;20169;-70
2022/06/13 11:01:29;;;;;;;10.73;1.65;;;18.00;99.90;;;;;;4946791;28;215747;-71
2022/06/13 11:03:58;;;;;;;;;;;18.20;99.90;;;;;;5005111;28;20058;-70
2022/06/13 11:06:48;;;;;;;14.10;1.77;;;18.40;99.90;;;;;;4925869;28;143682;-72
2022/06/13 11:09:38;;;;;;;12.02;1.50;;;18.10;99.80;;;;;;4982026;28;56865;-71
2022/06/13 11:12:24;;;;;;;10.23;1.80;;;17.40;99.50;;;;;;4962069;28;218178;-71
2022/06/13 11:23:57;;;;;;;10.13;1.70;;;16.50;99.90;;;;;;5001121;28;20056;-71
2022/06/13 11:29:17;;;;;;;11.90;1.67;;;16.50;99.90;;;;;;5005013;28;258570;-72
2022/06/13 11:31:49;;;;;;;10.48;1.88;;;16.80;99.90;;;;;;4991749;28;105771;-71
2022/06/13 11:34:21;;;;;;;14.52;1.60;;;16.90;99.90;;;;;;5023168;28;250700;-70
2022/06/13 11:37:13;;;;;;;14.43;2.00;;;17.00;99.70;;;;;;4991974;28;206210;-70
2022/06/13 11:39:42;;;;;;;12.18;1.60;;;16.90;99.90;;;;;;5015094;28;107424;-71
2022/06/13 11:42:30;;;;;;;12.90;2.28;;;17.00;99.90;;;;;;4980891;28;210178;-71
2022/06/13 11:45:04;;;;;;;16.00;2.00;;;17.60;99.90;;;;;;5025239;28;262009;-71
2022/06/13 11:47:47;;;;;;;14.52;2.10;;;18.00;99.90;;;;;;4991400;28;205991;-71
2022/06/13 11:50:24;;;;;;;11.32;1.85;;;18.60;98.50;;;;;;5011003;28;151098;-70
2022/06/13 11:55:58;;;;;;;11.57;2.00;;;19.30;95.20;;;;;;4983576;28;247886;-71
2022/06/13 11:58:31;;;;;;;13.60;1.95;;;18.40;93.10;;;;;;5050904;28;20151;-71
2022/06/13 12:01:02;;;;;;;12.23;1.92;;;18.00;95.80;;;;;;4966506;28;205687;-70
2022/06/13 12:03:29;;;;;;;12.05;1.88;;;17.60;96.10;;;;;;5040542;28;20498;-70
2022/06/13 12:06:11;;;;;;;10.13;1.85;;;17.50;97.40;;;;;;4959665;28;261112;-71
2022/06/13 12:08:39;;;;;;;12.40;2.10;;;17.60;98.30;;;;;;5034865;28;20568;-71
2022/06/13 12:11:14;;;;;;;12.65;1.90;;;17.80;98.10;;;;;;4978912;28;266789;-71
2022/06/13 12:13:43;;;;;;;11.68;2.05;;;18.40;97.40;;;;;;5040286;28;20077;-70
2022/06/13 12:16:27;;;;;;;12.77;2.05;;;19.40;96.10;;;;;;4971422;28;258720;-72
2022/06/13 12:19:22;;;;;;;8.63;1.50;;;20.00;93.00;;;;;;5025643;28;20052;-70
2022/06/13 12:22:00;;;;;;;10.80;1.75;;;19.40;87.90;;;;;;4968380;28;189259;-70
2022/06/13 12:24:56;;;;;;;10.27;1.98;;;18.90;93.80;;;;;;5024407;28;272361;-70
2022/06/13 12:27:34;;;;;;;11.70;1.85;;;18.70;94.90;;;;;;4990150;28;217163;-70
2022/06/13 12:30:28;;;;;;;9.75;1.70;;;18.20;94.40;;;;;;5024173;28;233967;-70
2022/06/13 12:33:02;;;;;;;14.05;1.92;;;17.90;95.40;;;;;;4979954;28;205714;-70
2022/06/13 12:35:31;;;;;;;13.38;2.05;;;17.80;97.00;;;;;;4977635;28;257319;-70
2022/06/13 12:38:16;;;;;;;12.98;2.28;;;17.80;97.30;;;;;;5043736;28;20052;-70
2022/06/13 12:40:58;;;;;;;14.10;2.40;;;17.80;97.90;;;;;;4970497;28;265608;-70
2022/06/13 12:44:03;;;;;;;13.90;1.85;;;18.00;97.10;;;;;;5029019;28;20053;-71
2022/06/13 12:46:29;;;;;;;13.18;1.88;;;18.20;97.00;;;;;;4950928;28;214335;-71
2022/06/13 12:49:21;;;;;;;12.07;2.00;;;18.50;96.70;;;;;;5040273;28;20060;-71
2022/06/13 12:52:14;;;;;;;10.50;2.20;;;18.50;96.10;;;;;;4980987;28;132606;-70
2022/06/13 12:55:18;;;;;;;10.77;1.60;;;18.50;96.00;;;;;;5025613;28;249539;-69
2022/06/13 12:57:56;;;;;;;10.18;1.65;;;18.00;95.50;;;;;;4959181;28;204155;-68
2022/06/13 13:00:45;;;;;;;13.50;2.08;;;17.70;95.60;;;;;;4975681;28;265434;-70
2022/06/13 13:03:25;;;;;;;12.50;1.70;;;17.70;96.70;;;;;;5021505;28;20056;-71
2022/06/13 13:06:05;;;;;;;11.65;2.00;;;17.60;97.20;;;;;;4952886;28;234747;-68
2022/06/13 13:08:51;;;;;;;12.73;1.75;;;17.70;97.60;;;;;;5034310;28;20060;-70
2022/06/13 13:11:43;;;;;;;10.85;1.65;;;18.80;97.40;;;;;;4977075;28;270962;-71
2022/06/13 13:14:18;;;;;;;10.87;1.63;;;19.20;95.40;;;;;;5022387;28;261918;-71
2022/06/13 13:17:02;;;;;;;11.70;1.80;;;19.20;94.60;;;;;;4994756;28;206872;-70
2022/06/13 13:19:58;;;;;;;10.80;1.92;;;19.20;94.00;;;;;;5023620;28;249397;-71
2022/06/13 13:22:48;;;;;;;12.35;1.88;;;19.50;92.80;;;;;;4989335;28;206754;-70
2022/06/13 13:25:35;;;;;;;11.52;1.92;;;19.90;90.70;;;;;;4992115;28;112815;-71
2022/06/13 13:28:14;;;;;;;10.18;1.80;;;20.00;91.40;;;;;;5020879;28;207449;-69
2022/06/13 13:31:03;;;;;;;12.55;1.85;;;19.70;92.10;;;;;;4971736;28;218609;-69
2022/06/13 13:33:45;;;;;;;15.23;1.80;;;19.40;92.90;;;;;;5019848;28;20112;-69
2022/06/13 13:36:23;;;;;;;11.75;1.98;;;19.20;93.60;;;;;;4968199;28;266845;-69
2022/06/13 13:39:01;;;;;;;11.95;1.55;;;19.00;90.40;;;;;;5033344;28;20049;-69
2022/06/13 13:41:54;;;;;;;10.30;1.70;;;18.50;91.70;;;;;;4976223;28;229101;-69
2022/06/13 13:44:30;;;;;;;6.90;1.10;;;18.20;88.50;;;;;;5003889;28;255700;-68
2022/06/13 13:47:05;;;;;;;7.75;1.40;;;17.80;86.80;;;;;;4974253;28;206416;-71